createdAt,value
2022-08-17T00:00:42.925Z,95833.28
2022-08-17T00:03:10.570Z,95833.03
2022-08-17T00:05:36.938Z,95842.22
2022-08-17T00:08:03.322Z,95845.31
2022-08-17T00:10:29.685Z,95840.50
2022-08-17T00:12:58.784Z,95842.00
2022-08-17T00:15:25.144Z,95842.13
2022-08-17T00:17:51.513Z,95873.06
2022-08-17T00:20:17.887Z,95859.00
2022-08-17T00:22:46.386Z,95852.47
2022-08-17T00:25:12.750Z,95858.88
2022-08-17T00:27:39.106Z,95864.88
2022-08-17T00:30:05.465Z,95869.44
2022-08-17T00:33:11.875Z,95864.38
2022-08-17T00:35:18.170Z,95872.41
2022-08-17T00:37:44.539Z,95877.94
2022-08-17T00:40:10.986Z,95872.97
2022-08-17T00:42:37.416Z,95876.31
2022-08-17T00:45:03.772Z,95868.59
2022-08-17T00:47:30.135Z,95863.72
2022-08-17T00:49:56.510Z,95865.16
2022-08-17T00:52:22.892Z,95864.75
2022-08-17T00:54:49.263Z,95862.16
2022-08-17T00:57:15.630Z,95855.34
2022-08-17T00:59:41.993Z,95843.47
2022-08-17T01:02:08.357Z,95849.47
2022-08-17T01:04:34.730Z,95862.22
2022-08-17T01:07:01.091Z,95854.97
2022-08-17T01:09:27.495Z,95868.03
2022-08-17T01:11:53.869Z,95876.06
2022-08-17T01:14:20.233Z,95892.06
2022-08-17T01:16:46.579Z,95888.16
2022-08-17T01:19:12.933Z,95892.59
2022-08-17T01:21:39.300Z,95886.53
2022-08-17T01:24:05.668Z,95867.50
2022-08-17T01:26:32.042Z,95895.06
2022-08-17T01:28:58.418Z,95899.44
2022-08-17T01:31:24.776Z,95893.81
2022-08-17T01:33:51.131Z,95888.81
2022-08-17T01:36:17.490Z,95873.63
2022-08-17T01:38:43.859Z,95893.25
2022-08-17T01:41:10.226Z,95897.31
2022-08-17T01:43:36.593Z,95906.41
2022-08-17T01:46:03.907Z,95894.63
2022-08-17T01:48:30.489Z,95884.69
2022-08-17T01:50:56.854Z,95891.00
2022-08-17T01:53:23.204Z,95910.88
2022-08-17T01:55:49.569Z,95897.63
2022-08-17T01:58:15.925Z,95886.19
2022-08-17T02:00:48.321Z,95877.03
2022-08-17T02:03:26.769Z,95892.06
2022-08-17T02:05:53.133Z,95899.78
2022-08-17T02:08:20.086Z,95886.53
2022-08-17T02:10:46.958Z,95891.22
2022-08-17T02:13:13.379Z,95896.53
2022-08-17T02:15:39.736Z,95898.22
2022-08-17T02:18:06.099Z,95903.78
2022-08-17T02:20:41.709Z,95910.72
2022-08-17T02:23:09.109Z,95920.41
2022-08-17T02:25:35.469Z,95915.88
2022-08-17T02:28:01.822Z,95903.44
2022-08-17T02:31:01.353Z,95895.22
2022-08-17T02:33:14.517Z,95864.41
2022-08-17T02:35:40.883Z,95857.94
2022-08-17T02:38:07.257Z,95864.88
2022-08-17T02:40:36.185Z,95882.72
2022-08-17T02:43:03.127Z,95876.25
2022-08-17T02:45:29.489Z,95871.56
2022-08-17T02:47:55.849Z,95870.00
2022-08-17T02:50:22.209Z,95855.72
2022-08-17T02:52:57.276Z,95845.44
2022-08-17T02:55:29.040Z,95836.66
2022-08-17T02:57:55.405Z,95822.56
2022-08-17T03:00:21.785Z,95810.19
2022-08-17T03:02:48.158Z,95820.34
2022-08-17T03:05:14.532Z,95828.44
2022-08-17T03:07:40.898Z,95828.44
2022-08-17T03:10:07.255Z,95827.78
2022-08-17T03:12:33.629Z,95830.53
2022-08-17T03:15:00.018Z,95823.09
2022-08-17T03:17:26.381Z,95819.59
2022-08-17T03:19:52.763Z,95806.66
2022-08-17T03:22:37.116Z,95801.94
2022-08-17T03:25:04.697Z,95801.28
2022-08-17T03:27:37.090Z,95795.09
2022-08-17T03:30:05.866Z,95797.59
2022-08-17T03:32:32.232Z,95781.72
2022-08-17T03:34:58.598Z,95776.78
2022-08-17T03:37:24.965Z,95774.34
2022-08-17T03:39:51.365Z,95771.81
2022-08-17T03:42:31.397Z,95757.84
2022-08-17T03:44:59.215Z,95751.19
2022-08-17T03:47:25.573Z,95741.66
2022-08-17T03:49:51.943Z,95738.66
2022-08-17T03:52:18.332Z,95745.72
2022-08-17T03:54:44.722Z,95750.66
2022-08-17T03:57:11.103Z,95748.06
2022-08-17T03:59:37.471Z,95754.59
2022-08-17T04:02:03.842Z,95764.00
2022-08-17T04:04:30.209Z,95767.25
2022-08-17T04:06:56.569Z,95759.09
2022-08-17T04:09:22.934Z,95768.25
2022-08-17T04:11:49.303Z,95771.81
2022-08-17T04:14:15.685Z,95767.25
2022-08-17T04:16:42.061Z,95773.50
2022-08-17T04:19:08.436Z,95779.31
2022-08-17T04:21:34.810Z,95781.03
2022-08-17T04:24:01.175Z,95774.31
2022-08-17T04:26:53.001Z,95774.50
2022-08-17T04:29:13.889Z,95771.63
2022-08-17T04:31:40.261Z,95757.38
2022-08-17T04:34:06.634Z,95762.06
2022-08-17T04:36:33.000Z,95756.50
2022-08-17T04:38:59.369Z,95743.91
2022-08-17T04:41:25.741Z,95749.38
2022-08-17T04:43:52.100Z,95759.81
2022-08-17T04:46:18.470Z,95768.41
2022-08-17T04:48:44.849Z,95778.09
2022-08-17T04:51:11.221Z,95775.19
2022-08-17T04:53:37.601Z,95786.81
2022-08-17T04:56:04.008Z,95782.34
2022-08-17T04:58:30.410Z,95783.25
2022-08-17T05:00:56.867Z,95787.50
2022-08-17T05:03:23.294Z,95781.03
2022-08-17T05:05:49.924Z,95781.84
2022-08-17T05:08:16.436Z,95784.84
2022-08-17T05:10:45.411Z,95788.75
2022-08-17T05:13:12.141Z,95791.75
2022-08-17T05:15:38.509Z,95795.41
2022-08-17T05:18:11.380Z,95800.25
2022-08-17T05:20:37.773Z,95810.03
2022-08-17T05:23:04.147Z,95818.53
2022-08-17T05:25:30.537Z,95822.91
2022-08-17T05:28:00.817Z,95817.41
2022-08-17T05:30:28.517Z,95819.41
2022-08-17T05:32:55.173Z,95813.88
2022-08-17T05:35:21.728Z,95819.41
2022-08-17T05:37:48.120Z,95828.25
2022-08-17T05:40:14.493Z,95834.84
2022-08-17T05:42:40.856Z,95834.16
2022-08-17T05:45:07.234Z,95839.09
2022-08-17T05:47:33.616Z,95848.69
2022-08-17T05:49:59.974Z,95850.91
2022-08-17T05:52:28.285Z,95854.38
2022-08-17T05:54:54.662Z,95857.84
2022-08-17T05:57:22.155Z,95868.66
2022-08-17T05:59:49.146Z,95862.53
2022-08-17T06:02:15.509Z,95865.69
2022-08-17T06:04:41.880Z,95863.44
2022-08-17T06:07:08.250Z,95872.59
2022-08-17T06:09:34.610Z,95874.16
2022-08-17T06:12:00.975Z,95872.59
2022-08-17T06:14:28.877Z,95871.13
2022-08-17T06:16:55.235Z,95874.94
2022-08-17T06:19:21.602Z,95874.16
2022-08-17T06:21:47.973Z,95864.22
2022-08-17T06:24:14.343Z,95871.94
2022-08-17T06:26:43.305Z,95882.66
2022-08-17T06:29:09.928Z,95891.16
2022-08-17T06:31:45.283Z,95891.16
2022-08-17T06:34:11.657Z,95887.53
2022-08-17T06:36:38.024Z,95887.09
2022-08-17T06:39:04.417Z,95896.22
2022-08-17T06:41:30.790Z,95892.47
2022-08-17T06:43:57.159Z,95901.59
2022-08-17T06:46:23.540Z,95908.53
2022-08-17T06:48:49.918Z,95924.59
2022-08-17T06:51:16.276Z,95920.34
2022-08-17T06:53:42.650Z,95915.44
2022-08-17T06:56:09.032Z,95920.16
2022-08-17T06:58:35.397Z,95904.72
2022-08-17T07:01:03.111Z,95907.88
2022-08-17T07:03:29.536Z,95906.28
2022-08-17T07:05:55.903Z,95908.97
2022-08-17T07:08:27.686Z,95910.34
2022-08-17T07:10:56.380Z,95908.91
2022-08-17T07:13:22.753Z,95894.53
2022-08-17T07:15:50.947Z,95905.25
2022-08-17T07:18:20.312Z,95902.09
2022-08-17T07:20:46.675Z,95905.69
2022-08-17T07:23:13.060Z,95909.69
2022-08-17T07:25:39.436Z,95912.69
2022-08-17T07:28:06.843Z,95912.03
2022-08-17T07:30:45.528Z,95917.06
2022-08-17T07:33:13.919Z,95919.22
2022-08-17T07:35:41.300Z,95923.78
2022-08-17T07:38:25.310Z,95907.69
2022-08-17T07:40:53.064Z,95911.31
2022-08-17T07:43:23.108Z,95910.06
2022-08-17T07:45:50.081Z,95909.72
2022-08-17T07:48:16.454Z,95914.00
2022-08-17T07:50:42.821Z,95905.94
2022-08-17T07:53:16.001Z,95905.63
2022-08-17T07:55:42.373Z,95904.81
2022-08-17T07:58:08.748Z,95901.94
2022-08-17T08:00:35.137Z,95898.81
2022-08-17T08:03:01.550Z,95908.91
2022-08-17T08:05:48.736Z,95913.59
2022-08-17T08:08:14.287Z,95912.03
2022-08-17T08:10:42.828Z,95922.28
2022-08-17T08:13:12.258Z,95922.75
2022-08-17T08:15:40.580Z,95924.78
2022-08-17T08:18:11.631Z,95912.03
2022-08-17T08:20:51.936Z,95916.72
2022-08-17T08:23:19.977Z,95919.41
2022-08-17T08:25:48.789Z,95920.50
2022-08-17T08:28:19.798Z,95921.88
2022-08-17T08:30:46.174Z,95923.00
2022-08-17T08:33:12.554Z,95935.72
2022-08-17T08:35:38.926Z,95930.69
2022-08-17T08:38:05.295Z,95937.09
2022-08-17T08:40:31.658Z,95932.84
2022-08-17T08:42:58.013Z,95939.31
2022-08-17T08:45:24.375Z,95937.75
2022-08-17T08:47:50.975Z,95934.59
2022-08-17T08:50:37.039Z,95939.97
2022-08-17T08:53:03.784Z,95926.78
2022-08-17T08:55:32.293Z,95923.56
2022-08-17T08:57:58.656Z,95917.88
2022-08-17T09:00:25.012Z,95921.00
2022-08-17T09:02:51.374Z,95906.47
2022-08-17T09:05:17.738Z,95913.44
2022-08-17T09:07:44.156Z,95914.22
2022-08-17T09:10:10.525Z,95923.50
2022-08-17T09:12:36.893Z,95911.44
2022-08-17T09:15:03.283Z,95904.53
2022-08-17T09:17:29.646Z,95890.66
2022-08-17T09:19:56.001Z,95895.03
2022-08-17T09:22:22.372Z,95902.28
2022-08-17T09:24:48.757Z,95922.16
2022-08-17T09:27:15.123Z,95931.34
2022-08-17T09:29:41.487Z,95921.28
2022-08-17T09:32:07.856Z,95927.31
2022-08-17T09:34:34.230Z,95918.47
2022-08-17T09:37:01.626Z,95905.28
2022-08-17T09:39:28.109Z,95895.81
2022-08-17T09:41:54.522Z,95894.91
2022-08-17T09:44:22.788Z,95888.84
2022-08-17T09:46:50.166Z,95892.22
2022-08-17T09:49:16.531Z,95900.72
2022-08-17T09:51:42.885Z,95911.44
2022-08-17T09:54:35.189Z,95917.25
2022-08-17T09:57:11.881Z,95908.88
2022-08-17T09:59:41.980Z,95914.53
2022-08-17T10:02:08.407Z,95910.75
2022-08-17T10:04:39.602Z,95914.31
2022-08-17T10:07:05.981Z,95907.06
2022-08-17T10:09:32.375Z,95900.50
2022-08-17T10:11:58.976Z,95902.50
2022-08-17T10:14:38.048Z,95896.03
2022-08-17T10:17:10.612Z,95895.34
2022-08-17T10:19:36.997Z,95890.66
2022-08-17T10:22:14.904Z,95891.56
2022-08-17T10:25:21.025Z,95880.81
2022-08-17T10:27:36.820Z,95886.84
2022-08-17T10:30:03.236Z,95876.13
2022-08-17T10:32:29.602Z,95882.16
2022-08-17T10:34:55.977Z,95875.25
2022-08-17T10:37:22.346Z,95872.34
2022-08-17T10:39:52.309Z,95873.03
2022-08-17T10:42:30.393Z,95877.59
2022-08-17T10:44:59.244Z,95863.06
2022-08-17T10:47:25.606Z,95859.16
2022-08-17T10:49:51.966Z,95858.50
2022-08-17T10:52:18.337Z,95849.31
2022-08-17T10:54:44.692Z,95852.25
2022-08-17T10:57:11.049Z,95855.34
2022-08-17T10:59:37.425Z,95858.50
2022-08-17T11:02:03.796Z,95850.00
2022-08-17T11:04:30.172Z,95838.38
2022-08-17T11:06:56.533Z,95845.28
2022-08-17T11:09:22.900Z,95847.63
2022-08-17T11:11:49.259Z,95831.69
2022-08-17T11:14:15.622Z,95831.69
2022-08-17T11:16:41.976Z,95842.53
2022-08-17T11:19:08.332Z,95837.50
2022-08-17T11:21:34.701Z,95833.91
2022-08-17T11:24:01.065Z,95838.59
2022-08-17T11:26:27.430Z,95844.28
2022-08-17T11:28:53.787Z,95841.50
2022-08-17T11:31:20.155Z,95842.41
2022-08-17T11:34:04.473Z,95838.16
2022-08-17T11:36:30.829Z,95839.25
2022-08-17T11:38:57.193Z,95838.16
2022-08-17T11:41:23.711Z,95835.03
2022-08-17T11:43:50.081Z,95836.16
2022-08-17T11:46:16.453Z,95828.53
2022-08-17T11:48:42.822Z,95813.38
2022-08-17T11:51:09.181Z,95810.91
2022-08-17T11:53:35.535Z,95804.41
2022-08-17T11:56:01.904Z,95806.44
2022-08-17T11:58:28.340Z,95806.44
2022-08-17T12:00:54.706Z,95799.50
2022-08-17T12:03:21.099Z,95806.44
2022-08-17T12:05:47.501Z,95786.78
2022-08-17T12:08:13.867Z,95791.00
2022-08-17T12:10:40.228Z,95792.59
2022-08-17T12:13:06.602Z,95783.44
2022-08-17T12:15:32.962Z,95781.88
2022-08-17T12:17:59.448Z,95780.41
2022-08-17T12:20:25.856Z,95776.72
2022-08-17T12:22:52.207Z,95772.03
2022-08-17T12:25:18.557Z,95769.03
2022-08-17T12:28:05.571Z,95765.78
2022-08-17T12:30:31.259Z,95765.78
2022-08-17T12:32:57.636Z,95762.88
2022-08-17T12:35:23.990Z,95757.50
2022-08-17T12:37:50.578Z,95761.19
2022-08-17T12:40:17.026Z,95755.06
2022-08-17T12:42:43.393Z,95750.59
2022-08-17T12:45:09.751Z,95745.22
2022-08-17T12:47:36.124Z,95736.72
2022-08-17T12:50:02.479Z,95739.06
2022-08-17T12:52:28.860Z,95748.69
2022-08-17T12:54:55.223Z,95736.06
2022-08-17T12:57:21.598Z,95726.13
2022-08-17T12:59:47.997Z,95721.56
2022-08-17T13:02:15.096Z,95713.06
2022-08-17T13:04:41.464Z,95696.31
2022-08-17T13:07:07.831Z,95697.84
2022-08-17T13:09:36.070Z,95690.50
2022-08-17T13:12:07.493Z,95693.16
2022-08-17T13:14:34.247Z,95687.03
2022-08-17T13:17:00.682Z,95678.56
2022-08-17T13:19:39.897Z,95682.03
2022-08-17T13:22:07.641Z,95690.06
2022-08-17T13:24:38.364Z,95688.47
2022-08-17T13:27:08.281Z,95675.53
2022-08-17T13:29:34.933Z,95677.09
2022-08-17T13:32:04.378Z,95667.16
2022-08-17T13:34:31.544Z,95659.44
2022-08-17T13:36:59.767Z,95650.97
2022-08-17T13:39:26.283Z,95668.63
2022-08-17T13:41:52.692Z,95670.16
2022-08-17T13:44:19.049Z,95667.81
2022-08-17T13:46:45.405Z,95680.44
2022-08-17T13:49:16.658Z,95676.22
2022-08-17T13:51:43.011Z,95685.38
2022-08-17T13:54:09.361Z,95693.09
2022-08-17T13:56:38.700Z,95690.75
2022-08-17T13:59:05.659Z,95692.28
2022-08-17T14:01:32.077Z,95686.81
2022-08-17T14:03:58.533Z,95691.50
2022-08-17T14:06:52.291Z,95683.78
2022-08-17T14:09:11.233Z,95687.59
2022-08-17T14:11:37.601Z,95682.25
2022-08-17T14:14:03.959Z,95681.56
2022-08-17T14:16:30.318Z,95685.38
2022-08-17T14:18:57.515Z,95680.44
2022-08-17T14:21:23.942Z,95679.22
2022-08-17T14:23:54.900Z,95668.84
2022-08-17T14:26:21.439Z,95675.75
2022-08-17T14:28:56.708Z,95674.66
2022-08-17T14:31:23.397Z,95670.84
2022-08-17T14:33:49.759Z,95661.69
2022-08-17T14:36:16.116Z,95658.31
2022-08-17T14:38:42.493Z,95659.44
2022-08-17T14:41:08.853Z,95660.91
2022-08-17T14:43:35.209Z,95654.09
2022-08-17T14:46:01.572Z,95654.09
2022-08-17T14:48:27.931Z,95650.97
2022-08-17T14:50:54.282Z,95652.97
2022-08-17T14:53:20.634Z,95651.75
2022-08-17T14:55:47.516Z,95648.72
2022-08-17T14:58:15.075Z,95650.63
2022-08-17T15:00:41.445Z,95657.56
2022-08-17T15:03:07.809Z,95642.50
2022-08-17T15:05:34.182Z,95651.41
2022-08-17T15:08:00.559Z,95647.84
2022-08-17T15:10:26.972Z,95653.63
2022-08-17T15:12:53.361Z,95649.41
2022-08-17T15:15:19.718Z,95644.03
2022-08-17T15:17:46.257Z,95644.16
2022-08-17T15:20:14.923Z,95638.69
2022-08-17T15:22:41.597Z,95639.81
2022-08-17T15:25:07.975Z,95636.44
2022-08-17T15:27:34.365Z,95634.00
2022-08-17T15:30:00.722Z,95647.06
2022-08-17T15:32:27.080Z,95652.41
2022-08-17T15:34:53.450Z,95641.25
2022-08-17T15:37:19.800Z,95640.03
2022-08-17T15:39:46.235Z,95626.19
2022-08-17T15:42:12.672Z,95623.16
2022-08-17T15:44:39.037Z,95615.47
2022-08-17T15:47:05.411Z,95622.38
2022-08-17T15:49:31.778Z,95620.72
2022-08-17T15:51:58.191Z,95610.78
2022-08-17T15:54:24.606Z,95598.06
2022-08-17T15:56:58.122Z,95587.78
2022-08-17T15:59:24.482Z,95564.00
2022-08-17T16:03:13.293Z,95562.53
2022-08-17T16:04:40.243Z,95566.34
2022-08-17T16:07:10.423Z,95580.84
2022-08-17T16:09:36.794Z,95588.88
2022-08-17T16:12:03.169Z,95599.19
2022-08-17T16:14:34.212Z,95603.88
2022-08-17T16:17:01.643Z,95604.53
2022-08-17T16:19:28.002Z,95596.16
2022-08-17T16:21:54.373Z,95613.00
2022-08-17T16:24:20.773Z,95642.47
2022-08-17T16:26:47.125Z,95687.69
2022-08-17T16:29:13.482Z,95753.94
2022-08-17T16:31:39.840Z,95821.28
2022-08-17T16:34:17.971Z,95881.47
2022-08-17T16:36:54.852Z,95923.56
2022-08-17T16:39:22.648Z,95966.13
2022-08-17T16:41:49.013Z,96008.09
2022-08-17T16:44:15.726Z,95997.03
2022-08-17T16:46:45.531Z,96000.94
2022-08-17T16:49:12.490Z,95992.91
2022-08-17T16:51:53.967Z,95997.50
2022-08-17T16:54:20.329Z,96021.97
2022-08-17T16:56:46.708Z,96034.91
2022-08-17T16:59:32.289Z,96037.25
2022-08-17T17:01:59.415Z,96020.38
2022-08-17T17:04:25.767Z,96015.81
2022-08-17T17:06:52.164Z,96024.97
2022-08-17T17:09:18.526Z,96031.09
2022-08-17T17:11:44.882Z,96047.97
2022-08-17T17:14:11.237Z,96063.25
2022-08-17T17:16:37.591Z,96059.47
2022-08-17T17:19:05.545Z,96050.19
2022-08-17T17:21:31.934Z,96039.94
2022-08-17T17:23:58.298Z,96021.03
2022-08-17T17:26:24.664Z,96011.25
2022-08-17T17:28:51.047Z,96002.06
2022-08-17T17:31:17.438Z,96004.75
2022-08-17T17:33:43.806Z,95994.03
2022-08-17T17:36:10.168Z,96010.91
2022-08-17T17:38:36.529Z,96026.53
2022-08-17T17:41:03.138Z,96052.69
2022-08-17T17:43:44.867Z,96065.50
2022-08-17T17:46:28.545Z,96075.09
2022-08-17T17:48:55.562Z,96077.91
2022-08-17T17:51:55.053Z,96089.00
2022-08-17T17:54:08.279Z,96095.41
2022-08-17T17:56:43.890Z,96114.78
2022-08-17T17:59:12.672Z,96120.00
2022-08-17T18:01:39.459Z,96147.47
2022-08-17T18:04:08.281Z,96163.72
2022-08-17T18:06:44.075Z,96178.06
2022-08-17T18:09:10.437Z,96179.47
2022-08-17T18:11:37.361Z,96170.47
2022-08-17T18:14:03.919Z,96165.31
2022-08-17T18:16:31.929Z,96150.31
2022-08-17T18:18:58.459Z,96148.13
2022-08-17T18:21:24.828Z,96145.91
2022-08-17T18:23:51.210Z,96142.75
2022-08-17T18:26:17.565Z,96122.22
2022-08-17T18:28:43.923Z,96136.75
2022-08-17T18:31:10.285Z,96136.59
2022-08-17T18:33:36.646Z,96139.09
2022-08-17T18:36:03.024Z,96151.25
2022-08-17T18:38:29.447Z,96164.47
2022-08-17T18:40:57.155Z,96172.38
2022-08-17T18:43:23.607Z,96161.19
2022-08-17T18:45:50.036Z,96179.63
2022-08-17T18:48:16.477Z,96181.19
2022-08-17T18:50:42.927Z,96182.91
2022-08-17T18:53:09.785Z,96175.66
2022-08-17T18:55:36.155Z,96182.78
2022-08-17T18:58:03.789Z,96181.25
2022-08-17T19:00:30.233Z,96180.53
2022-08-17T19:02:56.691Z,96188.16
2022-08-17T19:05:23.184Z,96183.22
2022-08-17T19:07:49.951Z,96187.31
2022-08-17T19:10:16.706Z,96195.25
2022-08-17T19:12:43.137Z,96202.94
2022-08-17T19:15:09.567Z,96203.56
2022-08-17T19:17:35.995Z,96195.53
2022-08-17T19:20:02.391Z,96202.47
2022-08-17T19:22:30.988Z,96201.97
2022-08-17T19:25:02.571Z,96199.13
2022-08-17T19:27:41.868Z,96209.69
2022-08-17T19:30:16.932Z,96213.66
2022-08-17T19:32:46.576Z,96217.41
2022-08-17T19:35:17.289Z,96215.06
2022-08-17T19:37:43.973Z,96227.69
2022-08-17T19:40:10.462Z,96237.59
2022-08-17T19:42:37.054Z,96239.66
2022-08-17T19:45:03.577Z,96242.03
2022-08-17T19:47:51.515Z,96251.19
2022-08-17T19:50:16.362Z,96243.63
2022-08-17T19:52:42.731Z,96240.47
2022-08-17T19:55:09.118Z,96239.66
2022-08-17T19:57:35.497Z,96243.00
2022-08-17T20:00:01.876Z,96233.97
2022-08-17T20:02:28.251Z,96237.31
2022-08-17T20:04:54.627Z,96226.09
2022-08-17T20:07:20.992Z,96229.44
2022-08-17T20:09:47.347Z,96223.00
2022-08-17T20:12:13.708Z,96223.31
2022-08-17T20:14:40.076Z,96211.00
2022-08-17T20:17:20.326Z,96206.41
2022-08-17T20:19:49.662Z,96209.84
2022-08-17T20:22:16.026Z,96204.78
2022-08-17T20:24:42.397Z,96201.34
2022-08-17T20:27:08.757Z,96193.28
2022-08-17T20:29:39.564Z,96194.56
2022-08-17T20:32:07.016Z,96185.91
2022-08-17T20:34:36.747Z,96188.25
2022-08-17T20:37:04.028Z,96182.78
2022-08-17T20:39:34.823Z,96184.34
2022-08-17T20:42:02.826Z,96175.72
2022-08-17T20:44:29.268Z,96183.59
2022-08-17T20:46:55.642Z,96182.03
2022-08-17T20:49:22.009Z,96176.22
2022-08-17T20:52:00.765Z,96166.75
2022-08-17T20:54:28.221Z,96162.50
2022-08-17T20:56:54.580Z,96165.75
2022-08-17T20:59:20.970Z,96165.50
2022-08-17T21:01:47.383Z,96174.66
2022-08-17T21:04:13.789Z,96178.44
2022-08-17T21:06:40.157Z,96177.00
2022-08-17T21:09:06.518Z,96176.88
2022-08-17T21:12:01.494Z,96165.19
2022-08-17T21:14:19.214Z,96156.84
2022-08-17T21:16:45.569Z,96153.84
2022-08-17T21:19:11.921Z,96168.97
2022-08-17T21:21:38.290Z,96173.06
2022-08-17T21:24:04.642Z,96177.47
2022-08-17T21:26:31.083Z,96153.75
2022-08-17T21:29:00.728Z,96148.56
2022-08-17T21:31:27.984Z,96141.44
2022-08-17T21:33:55.989Z,96142.69
2022-08-17T21:36:22.354Z,96137.19
2022-08-17T21:38:48.715Z,96126.47
2022-08-17T21:41:15.079Z,96124.78
2022-08-17T21:43:41.445Z,96114.72
2022-08-17T21:46:07.801Z,96114.56
2022-08-17T21:48:34.192Z,96111.44
2022-08-17T21:51:00.635Z,96107.81
2022-08-17T21:53:32.192Z,96091.41
2022-08-17T21:55:59.334Z,96102.63
2022-08-17T21:58:25.701Z,96106.16
2022-08-17T22:00:52.111Z,96113.41
2022-08-17T22:03:18.538Z,96119.22
2022-08-17T22:05:44.906Z,96135.41
2022-08-17T22:08:16.523Z,96136.06
2022-08-17T22:10:43.749Z,96143.19
2022-08-17T22:13:16.484Z,96145.69
2022-08-17T22:15:43.801Z,96149.34
2022-08-17T22:18:10.157Z,96141.78
2022-08-17T22:20:36.518Z,96134.72
2022-08-17T22:23:02.872Z,96137.06
2022-08-17T22:25:29.224Z,96147.78
2022-08-17T22:27:55.593Z,96151.56
2022-08-17T22:30:21.961Z,96141.63
2022-08-17T22:32:48.324Z,96133.28
2022-08-17T22:35:14.687Z,96139.28
2022-08-17T22:37:41.068Z,96136.44
2022-08-17T22:40:07.501Z,96133.59
2022-08-17T22:42:33.950Z,96134.88
2022-08-17T22:45:00.313Z,96133.59
2022-08-17T22:47:26.669Z,96132.00
2022-08-17T22:49:54.528Z,96129.63
2022-08-17T22:52:21.039Z,96123.00
2022-08-17T22:54:47.392Z,96125.13
2022-08-17T22:57:13.758Z,96127.31
2022-08-17T22:59:40.129Z,96123.84
2022-08-17T23:02:06.494Z,96139.78
2022-08-17T23:04:32.860Z,96152.00
2022-08-17T23:06:59.221Z,96155.31
2022-08-17T23:09:25.579Z,96150.47
2022-08-17T23:11:51.954Z,96145.09
2022-08-17T23:14:18.301Z,96146.66
2022-08-17T23:16:44.674Z,96143.97
2022-08-17T23:19:11.043Z,96150.63
2022-08-17T23:21:37.425Z,96148.59
2022-08-17T23:24:03.795Z,96159.78
2022-08-17T23:26:32.194Z,96156.63
2022-08-17T23:28:58.553Z,96149.06
2022-08-17T23:31:25.760Z,96150.63
2022-08-17T23:33:52.407Z,96155.06
2022-08-17T23:36:18.755Z,96154.56
2022-08-17T23:38:45.119Z,96150.31
2022-08-17T23:41:11.477Z,96142.78
2022-08-17T23:43:37.833Z,96135.50
2022-08-17T23:46:04.228Z,96133.16
2022-08-17T23:48:35.691Z,96124.03
2022-08-17T23:51:04.244Z,96128.28
2022-08-17T23:53:30.796Z,96119.78
2022-08-17T23:56:03.938Z,96117.59
2022-08-17T23:58:36.306Z,96121.66
